createdAt,value
2018-03-28T00:01:16.973Z,76.70
2018-03-28T00:03:43.648Z,77.00
2018-03-28T00:06:10.401Z,77.20
2018-03-28T00:08:37.737Z,78.20
2018-03-28T00:11:04.569Z,78.10
2018-03-28T00:13:31.896Z,78.20
2018-03-28T00:15:59.105Z,77.20
2018-03-28T00:18:25.699Z,77.10
2018-03-28T00:20:53.052Z,76.70
2018-03-28T00:23:19.534Z,76.60
2018-03-28T00:25:46.427Z,77.90
2018-03-28T00:28:13.598Z,79.10
2018-03-28T00:30:40.063Z,79.10
2018-03-28T00:33:06.608Z,79.40
2018-03-28T00:35:33.066Z,79.10
2018-03-28T00:37:59.541Z,79.60
2018-03-28T00:40:26.104Z,79.60
2018-03-28T00:42:52.554Z,79.70
2018-03-28T00:45:18.989Z,80.00
2018-03-28T00:47:46.425Z,80.90
2018-03-28T00:50:13.795Z,81.20
2018-03-28T00:52:40.308Z,81.20
2018-03-28T00:55:06.899Z,81.40
2018-03-28T00:57:33.639Z,81.40
2018-03-28T01:00:00.110Z,81.80
2018-03-28T01:02:26.624Z,81.80
2018-03-28T01:04:53.277Z,81.80
2018-03-28T01:07:19.773Z,82.20
2018-03-28T01:09:47.382Z,82.40
2018-03-28T01:12:14.876Z,82.40
2018-03-28T01:14:42.085Z,83.10
2018-03-28T01:17:08.639Z,83.00
2018-03-28T01:19:35.145Z,83.10
2018-03-28T01:22:01.727Z,83.30
2018-03-28T01:24:28.237Z,83.20
2018-03-28T01:26:55.382Z,83.30
2018-03-28T01:29:21.857Z,83.50
2018-03-28T01:31:48.415Z,84.60
2018-03-28T01:34:14.881Z,84.80
2018-03-28T01:36:41.368Z,85.40
2018-03-28T01:39:08.016Z,85.40
2018-03-28T01:41:34.449Z,85.70
2018-03-28T01:44:00.906Z,86.80
2018-03-28T01:46:27.351Z,87.10
2018-03-28T01:48:53.832Z,87.10
2018-03-28T01:51:20.351Z,86.20
2018-03-28T01:53:46.847Z,85.70
2018-03-28T01:56:13.340Z,85.30
2018-03-28T01:58:39.911Z,85.50
2018-03-28T02:01:06.418Z,85.30
2018-03-28T02:03:32.867Z,85.30
2018-03-28T02:05:59.466Z,85.50
2018-03-28T02:08:25.995Z,85.50
2018-03-28T02:10:52.438Z,85.40
2018-03-28T02:13:18.969Z,85.50
2018-03-28T02:15:45.538Z,85.70
2018-03-28T02:18:11.977Z,86.00
2018-03-28T02:20:39.202Z,86.10
2018-03-28T02:23:05.683Z,86.10
2018-03-28T02:25:32.270Z,86.00
2018-03-28T02:27:58.728Z,86.20
2018-03-28T02:30:25.491Z,86.70
2018-03-28T02:32:51.939Z,87.00
2018-03-28T02:35:18.513Z,87.10
2018-03-28T02:37:45.935Z,87.40
2018-03-28T02:40:12.431Z,87.20
2018-03-28T02:42:39.052Z,87.40
2018-03-28T02:45:05.660Z,87.70
2018-03-28T02:47:32.105Z,87.80
2018-03-28T02:49:58.554Z,87.80
2018-03-28T02:52:25.064Z,87.90
2018-03-28T02:54:51.534Z,88.10
2018-03-28T02:57:18.095Z,87.90
2018-03-28T02:59:44.778Z,87.40
2018-03-28T03:02:11.240Z,86.70
2018-03-28T03:04:37.745Z,86.70
2018-03-28T03:07:04.797Z,86.70
2018-03-28T03:09:31.329Z,86.70
2018-03-28T03:11:57.743Z,86.60
2018-03-28T03:14:24.423Z,87.20
2018-03-28T03:16:50.860Z,87.60
2018-03-28T03:19:17.393Z,88.00
2018-03-28T03:21:44.176Z,87.60
2018-03-28T03:24:11.410Z,87.30
2018-03-28T03:26:37.879Z,87.20
2018-03-28T03:29:05.227Z,86.60
2018-03-28T03:31:31.730Z,86.40
2018-03-28T03:33:58.233Z,86.30
2018-03-28T03:36:25.086Z,86.80
2018-03-28T03:38:51.552Z,86.70
2018-03-28T03:41:18.139Z,87.10
2018-03-28T03:43:45.155Z,87.30
2018-03-28T03:46:11.720Z,86.50
2018-03-28T03:48:38.219Z,86.30
2018-03-28T03:51:05.022Z,86.60
2018-03-28T03:53:31.508Z,86.40
2018-03-28T03:55:57.967Z,86.80
2018-03-28T03:58:24.632Z,87.70
2018-03-28T04:00:51.154Z,87.80
2018-03-28T04:03:17.653Z,88.60
2018-03-28T04:05:44.464Z,88.40
2018-03-28T04:08:10.989Z,88.50
2018-03-28T04:10:37.507Z,87.70
2018-03-28T04:13:04.987Z,87.50
2018-03-28T04:15:31.478Z,87.30
2018-03-28T04:17:57.967Z,87.60
2018-03-28T04:20:24.569Z,86.80
2018-03-28T04:22:51.102Z,86.40
2018-03-28T04:25:18.368Z,86.00
2018-03-28T04:27:45.665Z,86.50
2018-03-28T04:30:12.379Z,86.80
2018-03-28T04:32:38.887Z,87.00
2018-03-28T04:35:05.398Z,87.80
2018-03-28T04:37:31.980Z,89.50
2018-03-28T04:39:58.464Z,90.60
2018-03-28T04:42:25.099Z,91.00
2018-03-28T04:44:52.362Z,91.80
2018-03-28T04:47:19.012Z,91.70
2018-03-28T04:49:45.669Z,91.20
2018-03-28T04:52:12.110Z,91.50
2018-03-28T04:54:38.614Z,91.90
2018-03-28T04:57:05.609Z,91.70
2018-03-28T04:59:32.054Z,91.80
2018-03-28T05:01:58.440Z,91.90
2018-03-28T05:04:24.973Z,91.50
2018-03-28T05:06:51.359Z,91.30
2018-03-28T05:09:17.990Z,91.30
2018-03-28T05:11:44.559Z,90.70
2018-03-28T05:14:11.808Z,90.30
2018-03-28T05:16:38.467Z,90.30
2018-03-28T05:19:04.966Z,90.00
2018-03-28T05:21:31.488Z,90.20
2018-03-28T05:23:58.000Z,89.10
2018-03-28T05:26:24.967Z,88.30
2018-03-28T05:28:51.424Z,86.80
2018-03-28T05:31:18.698Z,87.30
2018-03-28T05:33:45.505Z,87.20
2018-03-28T05:36:12.820Z,85.50
2018-03-28T05:38:39.725Z,86.30
2018-03-28T05:41:06.555Z,84.70
2018-03-28T05:43:33.074Z,83.80
2018-03-28T05:45:59.608Z,81.90
2018-03-28T05:48:26.187Z,81.40
2018-03-28T05:50:54.294Z,81.70
2018-03-28T05:53:20.894Z,80.20
2018-03-28T05:55:47.943Z,79.40
2018-03-28T05:58:14.457Z,78.70
2018-03-28T06:00:41.064Z,78.40
2018-03-28T06:03:07.866Z,78.70
2018-03-28T06:05:34.673Z,77.60
2018-03-28T06:08:01.291Z,76.50
2018-03-28T06:10:28.445Z,72.80
2018-03-28T06:12:54.969Z,68.30
2018-03-28T06:15:21.490Z,59.60
2018-03-28T06:17:48.230Z,54.50
2018-03-28T06:20:15.030Z,49.50
2018-03-28T06:22:42.104Z,46.20
2018-03-28T06:25:08.700Z,44.70
2018-03-28T06:27:35.552Z,45.30
2018-03-28T06:30:02.123Z,44.90
2018-03-28T06:32:29.499Z,39.70
2018-03-28T06:34:56.130Z,39.60
2018-03-28T06:37:23.882Z,39.70
2018-03-28T06:39:51.152Z,36.60
2018-03-28T06:42:17.787Z,36.40
2018-03-28T06:44:44.477Z,34.90
2018-03-28T06:47:11.968Z,34.70
2018-03-28T06:49:38.584Z,34.60
2018-03-28T06:52:05.356Z,33.60
2018-03-28T06:54:32.010Z,33.50
2018-03-28T06:56:58.468Z,31.20
2018-03-28T06:59:24.913Z,29.90
2018-03-28T07:01:51.509Z,29.50
2018-03-28T07:04:18.020Z,31.70
2018-03-28T07:06:44.601Z,29.80
2018-03-28T07:09:11.131Z,29.50
2018-03-28T07:11:37.845Z,28.90
2018-03-28T07:14:04.352Z,29.60
2018-03-28T07:16:30.944Z,28.60
2018-03-28T07:18:57.495Z,26.90
2018-03-28T07:21:24.076Z,27.50
2018-03-28T07:23:52.230Z,26.40
2018-03-28T07:26:18.853Z,26.30
2018-03-28T07:28:45.458Z,26.20
2018-03-28T07:31:12.522Z,26.90
2018-03-28T07:33:39.122Z,27.20
2018-03-28T07:36:07.106Z,25.80
2018-03-28T07:38:34.037Z,25.80
2018-03-28T07:41:00.812Z,25.10
2018-03-28T07:43:28.302Z,27.10
2018-03-28T07:45:55.174Z,26.30
2018-03-28T07:48:22.702Z,24.70
2018-03-28T07:50:49.242Z,24.70
2018-03-28T07:53:16.345Z,24.80
2018-03-28T07:55:42.965Z,24.20
2018-03-28T07:58:10.290Z,23.80
2018-03-28T08:00:36.846Z,23.80
2018-03-28T08:03:04.392Z,22.00
2018-03-28T08:05:31.812Z,21.30
2018-03-28T08:07:58.500Z,21.20
2018-03-28T08:10:25.813Z,21.60
2018-03-28T08:12:52.545Z,22.00
2018-03-28T08:15:19.264Z,23.80
2018-03-28T08:17:46.047Z,23.90
2018-03-28T08:20:12.570Z,24.10
2018-03-28T08:22:39.133Z,22.30
2018-03-28T08:25:09.832Z,21.70
2018-03-28T08:27:36.281Z,22.30
2018-03-28T08:30:03.347Z,21.80
2018-03-28T08:32:31.869Z,21.40
2018-03-28T08:34:58.337Z,21.30
2018-03-28T08:37:24.991Z,21.60
2018-03-28T08:39:51.642Z,21.30
2018-03-28T08:42:18.802Z,21.60
2018-03-28T08:44:45.568Z,21.80
2018-03-28T08:47:12.110Z,21.30
2018-03-28T08:49:38.694Z,21.90
2018-03-28T08:52:05.430Z,22.90
2018-03-28T08:54:32.859Z,23.40
2018-03-28T08:56:59.370Z,23.60
2018-03-28T08:59:25.919Z,22.90
2018-03-28T09:01:52.466Z,22.50
2018-03-28T09:04:19.153Z,21.50
2018-03-28T09:06:46.209Z,20.50
2018-03-28T09:09:12.889Z,20.60
2018-03-28T09:11:39.971Z,21.10
2018-03-28T09:14:07.340Z,20.50
2018-03-28T09:16:33.949Z,20.60
2018-03-28T09:19:00.452Z,20.40
2018-03-28T09:21:27.214Z,22.00
2018-03-28T09:23:54.544Z,23.40
2018-03-28T09:26:21.158Z,23.60
2018-03-28T09:28:48.482Z,22.90
2018-03-28T09:31:15.204Z,22.80
2018-03-28T09:33:41.714Z,23.70
2018-03-28T09:36:08.186Z,26.20
2018-03-28T09:38:34.700Z,26.90
2018-03-28T09:41:03.878Z,27.60
2018-03-28T09:43:30.683Z,28.00
2018-03-28T09:45:57.207Z,29.10
2018-03-28T09:48:23.682Z,29.50
2018-03-28T09:50:50.316Z,31.00
2018-03-28T09:53:17.501Z,31.10
2018-03-28T09:55:44.172Z,31.50
2018-03-28T09:58:10.832Z,32.50
2018-03-28T10:00:41.053Z,32.50
2018-03-28T10:03:12.089Z,32.50
2018-03-28T10:05:38.662Z,32.00
2018-03-28T10:08:06.297Z,31.90
2018-03-28T10:10:33.231Z,32.30
2018-03-28T10:12:59.807Z,33.60
2018-03-28T10:15:27.143Z,33.60
2018-03-28T10:17:54.649Z,36.70
2018-03-28T10:20:21.132Z,36.60
2018-03-28T10:22:47.671Z,37.00
2018-03-28T10:25:14.512Z,37.70
2018-03-28T10:27:41.085Z,38.80
2018-03-28T10:30:07.566Z,39.90
2018-03-28T10:32:34.168Z,38.60
2018-03-28T10:35:01.541Z,37.90
2018-03-28T10:37:28.782Z,38.20
2018-03-28T10:39:55.762Z,38.20
2018-03-28T10:42:22.364Z,39.00
2018-03-28T10:44:49.105Z,37.50
2018-03-28T10:47:15.689Z,37.30
2018-03-28T10:49:42.150Z,37.40
2018-03-28T10:52:09.737Z,37.00
2018-03-28T10:54:36.308Z,37.10
2018-03-28T10:57:03.121Z,36.60
2018-03-28T10:59:29.674Z,36.70
2018-03-28T11:01:56.322Z,37.00
2018-03-28T11:04:22.769Z,37.20
2018-03-28T11:06:50.039Z,37.20
2018-03-28T11:09:16.662Z,38.30
2018-03-28T11:11:43.294Z,37.60
2018-03-28T11:14:10.685Z,38.40
2018-03-28T11:16:37.891Z,37.50
2018-03-28T11:19:05.245Z,37.70
2018-03-28T11:21:31.734Z,37.10
2018-03-28T11:23:58.652Z,36.40
2018-03-28T11:26:25.939Z,35.90
2018-03-28T11:28:53.299Z,34.80
2018-03-28T11:31:20.055Z,34.70
2018-03-28T11:33:47.396Z,34.30
2018-03-28T11:36:14.017Z,34.20
2018-03-28T11:38:40.582Z,34.60
2018-03-28T11:41:07.042Z,32.70
2018-03-28T11:43:34.366Z,34.90
2018-03-28T11:46:00.982Z,34.90
2018-03-28T11:48:28.073Z,35.90
2018-03-28T11:50:54.620Z,33.60
2018-03-28T11:53:21.133Z,34.20
2018-03-28T11:55:47.732Z,34.50
2018-03-28T11:58:18.980Z,34.40
2018-03-28T12:00:45.721Z,34.40
2018-03-28T12:03:12.993Z,33.40
2018-03-28T12:05:39.636Z,33.40
2018-03-28T12:08:06.400Z,33.50
2018-03-28T12:10:33.268Z,32.70
2018-03-28T12:13:00.623Z,33.50
2018-03-28T12:15:27.368Z,31.60
2018-03-28T12:17:53.967Z,32.50
2018-03-28T12:20:20.570Z,33.70
2018-03-28T12:22:48.093Z,34.80
2018-03-28T12:25:14.746Z,34.70
2018-03-28T12:27:41.551Z,32.10
2018-03-28T12:30:08.055Z,31.60
2018-03-28T12:32:34.641Z,32.40
2018-03-28T12:35:01.178Z,32.00
2018-03-28T12:37:27.663Z,31.90
2018-03-28T12:39:54.159Z,31.30
2018-03-28T12:42:21.311Z,29.10
2018-03-28T12:44:47.890Z,27.60
2018-03-28T12:47:15.440Z,27.40
2018-03-28T12:49:42.101Z,27.30
2018-03-28T12:52:08.668Z,25.90
2018-03-28T12:54:35.895Z,24.60
2018-03-28T12:57:03.528Z,24.60
2018-03-28T12:59:31.132Z,22.40
2018-03-28T13:01:57.809Z,22.30
2018-03-28T13:04:24.504Z,22.70
2018-03-28T13:06:51.386Z,22.80
2018-03-28T13:09:18.700Z,23.30
2018-03-28T13:11:45.370Z,23.20
2018-03-28T13:14:11.906Z,23.30
2018-03-28T13:16:38.628Z,22.70
2018-03-28T13:19:05.184Z,22.40
2018-03-28T13:21:31.756Z,21.60
2018-03-28T13:23:59.573Z,19.70
2018-03-28T13:26:26.006Z,19.70
2018-03-28T13:28:52.674Z,19.90
2018-03-28T13:31:19.459Z,21.00
2018-03-28T13:33:46.032Z,20.90
2018-03-28T13:36:12.583Z,21.90
2018-03-28T13:38:39.584Z,23.60
2018-03-28T13:41:06.096Z,23.90
2018-03-28T13:43:32.746Z,23.60
2018-03-28T13:45:59.207Z,24.50
2018-03-28T13:48:28.708Z,25.50
2018-03-28T13:50:56.300Z,25.90
2018-03-28T13:53:23.601Z,26.90
2018-03-28T13:55:50.967Z,27.80
2018-03-28T13:58:17.516Z,28.30
2018-03-28T14:00:43.990Z,28.80
2018-03-28T14:03:10.636Z,28.20
2018-03-28T14:05:38.048Z,28.90
2018-03-28T14:08:06.545Z,28.80
2018-03-28T14:10:33.218Z,29.30
2018-03-28T14:13:00.099Z,28.60
2018-03-28T14:15:26.563Z,28.50
2018-03-28T14:17:53.148Z,29.80
2018-03-28T14:20:19.772Z,29.70
2018-03-28T14:22:47.038Z,30.00
2018-03-28T14:25:14.368Z,30.40
2018-03-28T14:27:41.082Z,30.40
2018-03-28T14:30:07.666Z,29.20
2018-03-28T14:32:34.232Z,29.60
2018-03-28T14:35:01.101Z,29.90
2018-03-28T14:37:28.449Z,30.70
2018-03-28T14:39:54.927Z,30.60
2018-03-28T14:42:22.330Z,31.00
2018-03-28T14:44:48.846Z,30.90
2018-03-28T14:47:15.651Z,30.30
2018-03-28T14:49:42.199Z,30.90
2018-03-28T14:52:09.396Z,31.40
2018-03-28T14:54:37.097Z,30.00
2018-03-28T14:57:04.170Z,30.50
2018-03-28T14:59:31.412Z,31.60
2018-03-28T15:01:58.106Z,31.60
2018-03-28T15:04:25.147Z,32.10
2018-03-28T15:06:51.705Z,31.70
2018-03-28T15:09:18.355Z,32.60
2018-03-28T15:11:45.495Z,32.10
2018-03-28T15:17:30.481Z,31.50
2018-03-28T15:19:57.323Z,31.40
2018-03-28T15:22:23.964Z,32.20
2018-03-28T15:24:50.625Z,32.10
2018-03-28T15:27:17.898Z,32.70
2018-03-28T15:29:44.533Z,32.60
2018-03-28T15:32:11.779Z,32.00
2018-03-28T15:34:38.252Z,31.80
2018-03-28T15:37:04.829Z,33.10
2018-03-28T15:39:31.400Z,32.70
2018-03-28T15:41:58.735Z,33.80
2018-03-28T15:44:25.297Z,33.70
2018-03-28T15:46:51.880Z,32.00
2018-03-28T15:49:18.314Z,32.80
2018-03-28T15:51:45.273Z,33.60
2018-03-28T15:54:11.925Z,33.40
2018-03-28T15:56:38.860Z,33.70
2018-03-28T15:59:05.471Z,33.50
2018-03-28T16:01:33.189Z,32.80
2018-03-28T16:04:00.329Z,32.60
2018-03-28T16:06:28.341Z,34.50
2018-03-28T16:08:55.096Z,34.40
2018-03-28T16:11:21.903Z,33.00
2018-03-28T16:13:48.584Z,33.50
2018-03-28T16:16:15.735Z,35.60
2018-03-28T16:18:42.330Z,45.00
2018-03-28T16:21:09.704Z,46.30
2018-03-28T16:23:36.240Z,46.30
2018-03-28T16:26:02.793Z,50.20
2018-03-28T16:28:29.425Z,52.00
2018-03-28T16:30:56.305Z,52.40
2018-03-28T16:33:22.812Z,51.60
2018-03-28T16:35:49.397Z,51.60
2018-03-28T16:38:16.180Z,52.00
2018-03-28T16:40:43.560Z,52.50
2018-03-28T16:43:10.808Z,54.10
2018-03-28T16:45:37.326Z,54.10
2018-03-28T16:48:03.903Z,54.30
2018-03-28T16:50:30.541Z,54.30
2018-03-28T16:52:58.062Z,54.90
2018-03-28T16:55:24.514Z,55.30
2018-03-28T16:57:51.065Z,55.60
2018-03-28T17:00:17.622Z,55.60
2018-03-28T17:02:44.932Z,55.20
2018-03-28T17:05:11.380Z,55.20
2018-03-28T17:07:37.890Z,55.40
2018-03-28T17:10:04.476Z,55.70
2018-03-28T17:12:31.034Z,55.50
2018-03-28T17:14:58.485Z,55.70
2018-03-28T17:17:25.759Z,55.90
2018-03-28T17:19:52.227Z,55.90
2018-03-28T17:22:18.809Z,55.90
2018-03-28T17:24:46.451Z,56.50
2018-03-28T17:27:13.148Z,56.50
2018-03-28T17:29:41.442Z,56.00
2018-03-28T17:32:07.976Z,55.90
2018-03-28T17:34:34.450Z,55.80
2018-03-28T17:37:00.958Z,55.50
2018-03-28T17:39:27.429Z,54.60
2018-03-28T17:41:53.971Z,55.00
2018-03-28T17:44:21.274Z,55.70
2018-03-28T17:46:48.241Z,55.60
2018-03-28T17:49:15.177Z,56.00
2018-03-28T17:51:41.808Z,56.60
2018-03-28T17:54:08.352Z,56.90
2018-03-28T17:56:35.649Z,57.30
2018-03-28T17:59:02.414Z,57.60
2018-03-28T18:01:29.142Z,57.80
2018-03-28T18:03:56.948Z,57.60
2018-03-28T18:06:23.376Z,57.60
2018-03-28T18:08:49.970Z,57.90
2018-03-28T18:11:16.522Z,58.40
2018-03-28T18:13:43.023Z,58.20
2018-03-28T18:16:09.954Z,58.00
2018-03-28T18:18:36.580Z,58.00
2018-03-28T18:21:03.052Z,58.60
2018-03-28T18:23:29.661Z,58.30
2018-03-28T18:25:56.159Z,58.50
2018-03-28T18:28:22.655Z,58.40
2018-03-28T18:30:49.970Z,59.00
2018-03-28T18:33:16.372Z,59.00
2018-03-28T18:35:43.879Z,59.30
2018-03-28T18:38:10.362Z,59.20
2018-03-28T18:40:36.915Z,59.70
2018-03-28T18:43:03.393Z,59.40
2018-03-28T18:45:30.029Z,59.10
2018-03-28T18:47:57.025Z,59.50
2018-03-28T18:50:23.695Z,59.40
2018-03-28T18:52:50.752Z,59.30
2018-03-28T18:55:18.008Z,60.10
2018-03-28T18:57:44.760Z,60.00
2018-03-28T19:00:11.948Z,60.40
2018-03-28T19:02:39.171Z,61.10
2018-03-28T19:05:05.638Z,61.00
2018-03-28T19:07:33.617Z,61.70
2018-03-28T19:10:00.074Z,61.70
2018-03-28T19:12:26.686Z,61.80
2018-03-28T19:14:53.188Z,61.70
2018-03-28T19:17:19.692Z,62.40
2018-03-28T19:19:47.020Z,63.50
2018-03-28T19:22:13.830Z,63.50
2018-03-28T19:24:41.080Z,64.00
2018-03-28T19:27:08.322Z,63.80
2018-03-28T19:29:34.881Z,64.10
2018-03-28T19:32:01.354Z,64.50
2018-03-28T19:34:27.870Z,64.80
2018-03-28T19:36:54.479Z,65.00
2018-03-28T19:39:21.778Z,66.00
2018-03-28T19:41:48.316Z,66.00
2018-03-28T19:44:14.947Z,66.00
2018-03-28T19:46:41.467Z,66.20
2018-03-28T19:49:08.078Z,66.50
2018-03-28T19:51:34.616Z,67.20
2018-03-28T19:54:01.152Z,67.20
2018-03-28T19:56:27.860Z,67.70
2018-03-28T19:58:54.616Z,68.10
2018-03-28T20:01:21.120Z,68.60
2018-03-28T20:03:47.668Z,68.30
2018-03-28T20:06:14.188Z,68.10
2018-03-28T20:08:40.724Z,68.70
2018-03-28T20:11:07.150Z,69.20
2018-03-28T20:13:34.245Z,69.20
2018-03-28T20:16:00.729Z,69.10
2018-03-28T20:18:27.178Z,69.10
2018-03-28T20:20:53.739Z,69.00
2018-03-28T20:23:20.195Z,69.00
2018-03-28T20:25:46.730Z,69.50
2018-03-28T20:28:14.024Z,69.60
2018-03-28T20:30:40.502Z,69.60
2018-03-28T20:33:06.967Z,69.60
2018-03-28T20:35:34.578Z,70.00
2018-03-28T20:38:01.175Z,69.90
2018-03-28T20:40:27.696Z,70.00
2018-03-28T20:42:54.227Z,70.30
2018-03-28T20:45:26.145Z,71.30
2018-03-28T20:47:53.413Z,71.70
2018-03-28T20:50:20.784Z,71.30
2018-03-28T20:52:47.249Z,71.20
2018-03-28T20:55:13.731Z,71.10
2018-03-28T20:57:47.428Z,71.30
2018-03-28T21:00:13.952Z,71.30
2018-03-28T21:02:40.538Z,71.90
2018-03-28T21:05:07.374Z,71.70
2018-03-28T21:07:34.820Z,72.00
2018-03-28T21:10:01.279Z,72.10
2018-03-28T21:12:28.916Z,72.30
2018-03-28T21:14:55.460Z,72.20
2018-03-28T21:17:22.005Z,72.60
2018-03-28T21:19:48.515Z,72.60
2018-03-28T21:22:15.766Z,73.20
2018-03-28T21:24:42.261Z,73.20
2018-03-28T21:27:10.023Z,73.80
2018-03-28T21:29:36.474Z,73.80
2018-03-28T21:32:03.868Z,73.80
2018-03-28T21:34:30.811Z,73.90
2018-03-28T21:36:57.294Z,74.10
2018-03-28T21:39:23.750Z,74.20
2018-03-28T21:41:50.239Z,75.20
2018-03-28T21:44:16.696Z,74.50
2018-03-28T21:46:43.273Z,74.80
2018-03-28T21:49:09.859Z,75.00
2018-03-28T21:51:37.070Z,75.30
2018-03-28T21:54:03.750Z,75.20
2018-03-28T21:56:31.390Z,75.40
2018-03-28T21:58:57.842Z,75.30
2018-03-28T22:01:25.119Z,75.60
2018-03-28T22:03:52.574Z,75.50
2018-03-28T22:06:19.051Z,75.60
2018-03-28T22:08:45.713Z,75.60
2018-03-28T22:11:12.356Z,75.50
2018-03-28T22:13:38.962Z,75.60
2018-03-28T22:16:05.426Z,75.70
2018-03-28T22:18:31.990Z,76.00
2018-03-28T22:20:58.535Z,76.10
2018-03-28T22:23:25.031Z,76.30
2018-03-28T22:25:51.513Z,76.20
2018-03-28T22:28:17.972Z,76.20
2018-03-28T22:30:45.339Z,76.30
2018-03-28T22:33:12.268Z,76.20
2018-03-28T22:35:39.687Z,76.50
2018-03-28T22:38:06.290Z,76.80
2018-03-28T22:40:33.802Z,76.80
2018-03-28T22:43:00.305Z,76.70
2018-03-28T22:45:27.496Z,77.00
2018-03-28T22:47:53.980Z,77.00
2018-03-28T22:50:20.409Z,77.00
2018-03-28T22:52:46.947Z,77.10
2018-03-28T22:55:14.157Z,76.50
2018-03-28T22:57:40.715Z,76.40
2018-03-28T23:00:07.213Z,76.40
2018-03-28T23:02:33.705Z,76.70
2018-03-28T23:05:00.821Z,76.70
2018-03-28T23:07:27.403Z,76.50
2018-03-28T23:09:54.741Z,76.20
2018-03-28T23:12:21.222Z,76.20
2018-03-28T23:14:47.704Z,76.20
2018-03-28T23:17:15.468Z,76.20
2018-03-28T23:19:42.756Z,76.60
2018-03-28T23:22:22.014Z,76.60
2018-03-28T23:24:48.469Z,76.50
2018-03-28T23:27:14.922Z,76.70
2018-03-28T23:29:41.437Z,76.60
2018-03-28T23:32:08.961Z,76.40
2018-03-28T23:34:35.460Z,76.30
2018-03-28T23:37:02.002Z,76.30
2018-03-28T23:39:28.509Z,76.20
2018-03-28T23:41:54.986Z,76.20
2018-03-28T23:44:21.461Z,76.10
2018-03-28T23:46:47.933Z,76.20
2018-03-28T23:49:14.348Z,76.40
2018-03-28T23:51:40.857Z,76.50
2018-03-28T23:54:07.368Z,76.70
2018-03-28T23:56:34.594Z,76.40
2018-03-28T23:59:01.226Z,76.40
